Time;durP1;ratioP1;P1;durP2;ratioP2;P2;SDS_P1;SDS_P2;PMS_P1;PMS_P2;Temp;Humidity;BMP_temperature;BMP_pressure;BME280_temperature;BME280_humidity;BME280_pressure;Samples;Min_cycle;Max_cycle;Signal;HPM_P1;HPM_P2
2023/05/07 00:01:46;;;;;;;2.4;2.2;;;;;;;;;;;;;
2023/05/07 00:04:11;;;;;;;3.7;2.5;;;;;;;;;;;;;
2023/05/07 00:06:36;;;;;;;2.7;2.3;;;;;;;;;;;;;
2023/05/07 00:09:04;;;;;;;2.6;2.3;;;;;;;;;;;;;
2023/05/07 00:11:34;;;;;;;2.5;2.3;;;;;;;;;;;;;
2023/05/07 00:13:53;;;;;;;3;2.3;;;;;;;;;;;;;
2023/05/07 00:16:20;;;;;;;2.2;2;;;;;;;;;;;;;
2023/05/07 00:18:45;;;;;;;2.2;2;;;;;;;;;;;;;
2023/05/07 00:21:10;;;;;;;2.2;1.8;;;;;;;;;;;;;
2023/05/07 00:23:35;;;;;;;3.3;2;;;;;;;;;;;;;
2023/05/07 00:26:02;;;;;;;2.7;2;;;;;;;;;;;;;
2023/05/07 00:28:27;;;;;;;3.1;2.1;;;;;;;;;;;;;
2023/05/07 00:30:53;;;;;;;2.2;2;;;;;;;;;;;;;
2023/05/07 00:33:20;;;;;;;2.5;2.1;;;;;;;;;;;;;
2023/05/07 00:35:44;;;;;;;2.5;2;;;;;;;;;;;;;
2023/05/07 00:38:09;;;;;;;2.6;2.4;;;;;;;;;;;;;
2023/05/07 00:40:36;;;;;;;2.6;2;;;;;;;;;;;;;
2023/05/07 00:43:01;;;;;;;4.4;2.3;;;;;;;;;;;;;
2023/05/07 00:45:28;;;;;;;2.2;2;;;;;;;;;;;;;
2023/05/07 00:47:53;;;;;;;2.1;1.9;;;;;;;;;;;;;
2023/05/07 00:50:19;;;;;;;1.9;1.8;;;;;;;;;;;;;
2023/05/07 00:52:44;;;;;;;1.9;1.8;;;;;;;;;;;;;
2023/05/07 00:55:09;;;;;;;2;1.9;;;;;;;;;;;;;
2023/05/07 00:57:34;;;;;;;2.4;2.2;;;;;;;;;;;;;
2023/05/07 00:59:59;;;;;;;1.9;1.7;;;;;;;;;;;;;
2023/05/07 01:02:24;;;;;;;1.9;1.8;;;;;;;;;;;;;
2023/05/07 01:04:49;;;;;;;2.4;2.1;;;;;;;;;;;;;
2023/05/07 01:07:16;;;;;;;2.1;1.9;;;;;;;;;;;;;
2023/05/07 01:09:41;;;;;;;2.5;2.1;;;;;;;;;;;;;
2023/05/07 01:12:06;;;;;;;3.3;2.2;;;;;;;;;;;;;
2023/05/07 01:14:32;;;;;;;2.7;2.3;;;;;;;;;;;;;
2023/05/07 01:16:58;;;;;;;2.4;2.1;;;;;;;;;;;;;
2023/05/07 01:19:24;;;;;;;2.3;2;;;;;;;;;;;;;
2023/05/07 01:21:49;;;;;;;2.7;2.1;;;;;;;;;;;;;
2023/05/07 01:24:14;;;;;;;3.3;2.6;;;;;;;;;;;;;
2023/05/07 01:26:39;;;;;;;3.1;2.5;;;;;;;;;;;;;
2023/05/07 01:29:05;;;;;;;3;2.3;;;;;;;;;;;;;
2023/05/07 01:31:30;;;;;;;2.2;2;;;;;;;;;;;;;
2023/05/07 01:33:57;;;;;;;2.2;2;;;;;;;;;;;;;
2023/05/07 01:36:25;;;;;;;2.1;1.8;;;;;;;;;;;;;
2023/05/07 01:38:47;;;;;;;2.1;1.9;;;;;;;;;;;;;
2023/05/07 01:41:13;;;;;;;2.7;2.1;;;;;;;;;;;;;
2023/05/07 01:43:38;;;;;;;2.4;2.2;;;;;;;;;;;;;
2023/05/07 01:46:04;;;;;;;2.1;1.9;;;;;;;;;;;;;
2023/05/07 01:48:29;;;;;;;2.5;2.3;;;;;;;;;;;;;
2023/05/07 01:50:54;;;;;;;2.1;1.9;;;;;;;;;;;;;
2023/05/07 01:53:19;;;;;;;2;1.8;;;;;;;;;;;;;
2023/05/07 01:55:45;;;;;;;2.2;2;;;;;;;;;;;;;
2023/05/07 01:58:10;;;;;;;1.9;1.7;;;;;;;;;;;;;
2023/05/07 02:00:35;;;;;;;2.4;2.2;;;;;;;;;;;;;
2023/05/07 02:03:00;;;;;;;1.9;1.8;;;;;;;;;;;;;
2023/05/07 02:05:26;;;;;;;3.2;1.9;;;;;;;;;;;;;
2023/05/07 02:07:51;;;;;;;2.1;1.9;;;;;;;;;;;;;
2023/05/07 02:10:18;;;;;;;3.1;1.8;;;;;;;;;;;;;
2023/05/07 02:12:44;;;;;;;2.8;2;;;;;;;;;;;;;
2023/05/07 02:15:09;;;;;;;2.1;1.9;;;;;;;;;;;;;
2023/05/07 02:17:35;;;;;;;3.6;2;;;;;;;;;;;;;
2023/05/07 02:19:59;;;;;;;3.3;2;;;;;;;;;;;;;
2023/05/07 02:22:25;;;;;;;2.8;2;;;;;;;;;;;;;
2023/05/07 02:24:49;;;;;;;2.2;2;;;;;;;;;;;;;
2023/05/07 02:27:14;;;;;;;2.1;1.9;;;;;;;;;;;;;
2023/05/07 02:29:52;;;;;;;2.4;1.9;;;;;;;;;;;;;
2023/05/07 02:32:05;;;;;;;2.3;2.1;;;;;;;;;;;;;
2023/05/07 02:34:30;;;;;;;2.2;2;;;;;;;;;;;;;
2023/05/07 02:36:55;;;;;;;2.1;1.9;;;;;;;;;;;;;
2023/05/07 02:39:20;;;;;;;2.4;2;;;;;;;;;;;;;
2023/05/07 02:41:45;;;;;;;2.3;2.1;;;;;;;;;;;;;
2023/05/07 02:44:13;;;;;;;2.7;2.2;;;;;;;;;;;;;
2023/05/07 02:46:38;;;;;;;2.5;2;;;;;;;;;;;;;
2023/05/07 02:49:03;;;;;;;2.3;2.1;;;;;;;;;;;;;
2023/05/07 02:51:28;;;;;;;1.8;1.7;;;;;;;;;;;;;
2023/05/07 02:53:53;;;;;;;2.2;2;;;;;;;;;;;;;
2023/05/07 02:56:18;;;;;;;2.2;2;;;;;;;;;;;;;
2023/05/07 02:58:43;;;;;;;2.5;1.9;;;;;;;;;;;;;
2023/05/07 03:01:09;;;;;;;2.2;2;;;;;;;;;;;;;
2023/05/07 03:03:34;;;;;;;2.1;1.9;;;;;;;;;;;;;
2023/05/07 03:06:01;;;;;;;2.6;2.4;;;;;;;;;;;;;
2023/05/07 03:08:26;;;;;;;2.1;1.9;;;;;;;;;;;;;
2023/05/07 03:10:53;;;;;;;2.3;2.1;;;;;;;;;;;;;
2023/05/07 03:13:19;;;;;;;2.2;2;;;;;;;;;;;;;
2023/05/07 03:15:45;;;;;;;2.2;1.9;;;;;;;;;;;;;
2023/05/07 03:18:10;;;;;;;1.9;1.8;;;;;;;;;;;;;
2023/05/07 03:20:37;;;;;;;2.8;2;;;;;;;;;;;;;
2023/05/07 03:23:01;;;;;;;2.5;1.9;;;;;;;;;;;;;
2023/05/07 03:25:29;;;;;;;2.2;2;;;;;;;;;;;;;
2023/05/07 03:27:53;;;;;;;2.6;2.4;;;;;;;;;;;;;
2023/05/07 03:30:21;;;;;;;2.3;2.1;;;;;;;;;;;;;
2023/05/07 03:32:50;;;;;;;3.2;2.1;;;;;;;;;;;;;
2023/05/07 03:35:15;;;;;;;2.3;2.1;;;;;;;;;;;;;
2023/05/07 03:37:43;;;;;;;1.9;1.8;;;;;;;;;;;;;
2023/05/07 03:40:14;;;;;;;2.2;2;;;;;;;;;;;;;
2023/05/07 03:42:43;;;;;;;2.1;1.8;;;;;;;;;;;;;
2023/05/07 03:45:09;;;;;;;2;1.9;;;;;;;;;;;;;
2023/05/07 03:47:34;;;;;;;2.4;1.8;;;;;;;;;;;;;
2023/05/07 03:49:59;;;;;;;2.3;2.1;;;;;;;;;;;;;
2023/05/07 03:52:28;;;;;;;2.6;1.9;;;;;;;;;;;;;
2023/05/07 03:55:07;;;;;;;2.4;2;;;;;;;;;;;;;
2023/05/07 03:57:37;;;;;;;3.6;2.2;;;;;;;;;;;;;
2023/05/07 04:00:03;;;;;;;2.2;2;;;;;;;;;;;;;
2023/05/07 04:02:36;;;;;;;3;1.9;;;;;;;11.41;98.92969;936.8939;;;;
2023/05/07 04:16:01;;;;;;;3.1;2;;;;;;;11.31;100;936.9419;;;;
2023/05/07 04:18:24;;;;;;;3.2;1.8;;;;;;;11.25;100;936.9423;;;;
2023/05/07 04:20:49;;;;;;;2.2;2;;;;;;;11.15;100;936.928;;;;
2023/05/07 04:23:18;;;;;;;2;1.9;;;;;;;11.19;100;936.9849;;;;
2023/05/07 04:25:46;;;;;;;3.4;2.2;;;;;;;11.26;100;936.9264;;;;
2023/05/07 04:28:15;;;;;;;2.7;2.5;;;;;;;11.37;100;936.923;;;;
2023/05/07 04:30:46;;;;;;;3.3;2.2;;;;;;;11.47;99.27441;936.9945;;;;
2023/05/07 04:33:19;;;;;;;2.5;2.3;;;;;;;11.62;98.58594;937.0289;;;;
2023/05/07 04:35:52;;;;;;;2.4;1.9;;;;;;;11.65;98.03125;937.017;;;;
2023/05/07 04:38:25;;;;;;;2.4;1.9;;;;;;;11.62;98.05957;936.9539;;;;
2023/05/07 04:41:00;;;;;;;2.1;1.7;;;;;;;11.65;97.62109;937.0083;;;;
2023/05/07 04:43:26;;;;;;;2;1.8;;;;;;;11.64;97.82324;937.0696;;;;
2023/05/07 04:45:55;;;;;;;1.9;1.8;;;;;;;11.72;97.44043;937.0739;;;;
2023/05/07 04:48:21;;;;;;;2.4;2.1;;;;;;;11.83;96.68848;937.0963;;;;
2023/05/07 04:50:53;;;;;;;2.9;1.9;;;;;;;11.84;96.6543;937.0988;;;;
2023/05/07 04:59:10;;;;;;;2.4;1.8;;;;;;;12;95.91309;937.0385;;;;
2023/05/07 05:01:41;;;;;;;2;1.8;;;;;;;12.01;96.13281;937.1345;;;;
2023/05/07 05:04:10;;;;;;;2.8;2.2;;;;;;;12;95.7627;937.1605;;;;
2023/05/07 05:06:43;;;;;;;2.3;1.9;;;;;;;12.07;95.44434;937.1442;;;;
2023/05/07 05:09:14;;;;;;;2.3;1.7;;;;;;;12.24;94.78418;937.0402;;;;
2023/05/07 05:12:49;;;;;;;1.8;1.7;;;;;;;12.38;93.7959;937.0658;;;;
2023/05/07 05:15:48;;;;;;;2.2;1.7;;;;;;;12.42;93.59668;937.0948;;;;
2023/05/07 05:18:13;;;;;;;2.1;1.9;;;;;;;12.44;93.46484;937.0916;;;;
2023/05/07 05:20:46;;;;;;;2.3;2.1;;;;;;;12.47;94.24902;937.0756;;;;
2023/05/07 05:23:19;;;;;;;2.2;2;;;;;;;12.88;93.16602;937.1072;;;;
2023/05/07 05:25:50;;;;;;;2.5;1.6;;;;;;;13.83;89.21777;937.0972;;;;
2023/05/07 05:28:15;;;;;;;2.4;1.6;;;;;;;14.76;83.85156;937.0987;;;;
2023/05/07 05:30:46;;;;;;;1.4;1.3;;;;;;;15.27;80.58008;937.1244;;;;
2023/05/07 05:33:17;;;;;;;1.5;1.4;;;;;;;15.86;78.3418;937.13;;;;
2023/05/07 05:35:48;;;;;;;1.4;1.3;;;;;;;15.96;76.99512;937.1158;;;;
2023/05/07 05:38:13;;;;;;;1.9;1.4;;;;;;;16.19;76.0752;937.0905;;;;
2023/05/07 05:40:44;;;;;;;2.1;1.3;;;;;;;16.52;75.31055;937.1249;;;;
2023/05/07 05:43:14;;;;;;;2;1.1;;;;;;;16.41;74.91211;937.1108;;;;
2023/05/07 05:45:39;;;;;;;1.2;1;;;;;;;16.49;73.57031;937.1172;;;;
2023/05/07 05:48:10;;;;;;;1.2;1.1;;;;;;;16.95;71.90918;937.1147;;;;
2023/05/07 05:50:39;;;;;;;1;1;;;;;;;17.09;71.93164;937.1464;;;;
2023/05/07 05:53:04;;;;;;;1.3;1.1;;;;;;;17.58;70.09668;937.1075;;;;
2023/05/07 05:55:36;;;;;;;1.6;1.2;;;;;;;17.36;71.01367;937.1074;;;;
2023/05/07 05:58:06;;;;;;;1.1;1;;;;;;;17.43;71.34863;937.0911;;;;
2023/05/07 06:00:31;;;;;;;1.3;1.2;;;;;;;17.86;69.58594;937.1245;;;;
2023/05/07 06:06:03;;;;;;;1.4;1.3;;;;;;;19.49;61.5918;937.0305;;;;
2023/05/07 06:08:30;;;;;;;1.2;0.9;;;;;;;20.04;58.9834;937.0204;;;;
2023/05/07 06:10:55;;;;;;;1.7;1.1;;;;;;;19.93;59.7168;937.0217;;;;
2023/05/07 06:13:22;;;;;;;1.3;1.2;;;;;;;19.72;59.87402;937.0945;;;;
2023/05/07 06:15:47;;;;;;;1;1;;;;;;;19.52;61.07227;937.0717;;;;
2023/05/07 06:20:58;;;;;;;1.4;0.8;;;;;;;20.35;57.29785;937.0303;;;;
2023/05/07 06:23:26;;;;;;;0.7;0.7;;;;;;;20.56;56.81055;937.0463;;;;
2023/05/07 06:25:51;;;;;;;1.4;0.8;;;;;;;21.25;54.52441;937.0773;;;;
2023/05/07 06:28:19;;;;;;;0.9;0.9;;;;;;;22.02;52.50879;937.0625;;;;
2023/05/07 06:30:44;;;;;;;2.1;1;;;;;;;21.96;53.33496;937.0159;;;;
2023/05/07 06:33:11;;;;;;;1;1;;;;;;;22.23;52.80371;936.9802;;;;
2023/05/07 06:39:09;;;;;;;1.1;0.8;;;;;;;24.23;47.49414;936.9518;;;;
2023/05/07 06:45:14;;;;;;;0.7;0.7;;;;;;;22.94;49.92871;936.938;;;;
2023/05/07 06:47:39;;;;;;;0.9;0.9;;;;;;;24.45;47.15137;936.8803;;;;
2023/05/07 06:50:07;;;;;;;0.7;0.7;;;;;;;25.42;45.94336;936.9342;;;;
2023/05/07 06:53:16;;;;;;;0.7;0.7;;;;;;;26.61;41.0918;936.9508;;;;
2023/05/07 06:55:26;;;;;;;0.8;0.8;;;;;;;27.45;39.43652;936.9011;;;;
2023/05/07 06:57:55;;;;;;;1.2;1.1;;;;;;;25.46;42.16699;936.935;;;;
2023/05/07 07:00:24;;;;;;;1.4;1.1;;;;;;;25.4;44.76074;936.853;;;;
2023/05/07 07:02:49;;;;;;;0.8;0.8;;;;;;;26.62;41.98145;936.9109;;;;
2023/05/07 07:05:17;;;;;;;0.9;0.9;;;;;;;27.69;39.43359;936.9185;;;;
2023/05/07 07:07:42;;;;;;;0.6;0.6;;;;;;;27.4;38.70801;936.8937;;;;
2023/05/07 07:10:11;;;;;;;1.1;0.8;;;;;;;25.76;40.00977;936.9171;;;;
2023/05/07 07:12:36;;;;;;;0.6;0.6;;;;;;;24.65;42.89258;936.8853;;;;
2023/05/07 07:15:03;;;;;;;0.8;0.8;;;;;;;25.33;41.57715;936.837;;;;
2023/05/07 07:17:28;;;;;;;1.3;0.7;;;;;;;25.66;41.31152;936.8805;;;;
2023/05/07 07:19:54;;;;;;;0.9;0.8;;;;;;;25.91;40.82715;936.8507;;;;
2023/05/07 07:22:19;;;;;;;0.6;0.6;;;;;;;27.11;39.71484;936.8015;;;;
2023/05/07 07:24:44;;;;;;;1.3;0.8;;;;;;;28.23;37.70996;936.7755;;;;
2023/05/07 07:27:13;;;;;;;0.7;0.7;;;;;;;25.9;40.89551;936.8052;;;;
2023/05/07 07:29:38;;;;;;;0.5;0.5;;;;;;;24.98;42.15723;936.7516;;;;
2023/05/07 07:32:07;;;;;;;0.7;0.7;;;;;;;26.47;41.78906;936.7773;;;;
2023/05/07 07:34:35;;;;;;;0.6;0.6;;;;;;;24.97;41.64941;936.6834;;;;
2023/05/07 07:37:05;;;;;;;0.7;0.7;;;;;;;25.91;40.24707;936.7505;;;;
2023/05/07 07:39:25;;;;;;;0.6;0.6;;;;;;;25.85;40.14746;936.7203;;;;
2023/05/07 07:41:51;;;;;;;0.7;0.7;;;;;;;25.48;40.24414;936.7129;;;;
2023/05/07 07:44:17;;;;;;;0.7;0.7;;;;;;;24.51;42.79785;936.7064;;;;
2023/05/07 07:46:44;;;;;;;0.6;0.6;;;;;;;25.16;42.23242;936.683;;;;
2023/05/07 07:49:09;;;;;;;0.7;0.7;;;;;;;25.55;42.44727;936.7003;;;;
2023/05/07 07:51:35;;;;;;;0.6;0.6;;;;;;;26.79;39.82813;936.6785;;;;
2023/05/07 07:54:02;;;;;;;1.7;0.5;;;;;;;26.05;39.32617;936.691;;;;
2023/05/07 07:56:32;;;;;;;0.6;0.6;;;;;;;26.5;38.38281;936.6858;;;;
2023/05/07 07:59:01;;;;;;;0.5;0.5;;;;;;;26.21;39.11426;936.5914;;;;
2023/05/07 08:01:33;;;;;;;0.6;0.6;;;;;;;25.16;39.69531;936.6317;;;;
2023/05/07 08:04:03;;;;;;;0.5;0.5;;;;;;;23.66;43.82031;936.5527;;;;
2023/05/07 08:06:28;;;;;;;0.6;0.6;;;;;;;23.96;43.63867;936.5739;;;;
2023/05/07 08:08:56;;;;;;;0.6;0.6;;;;;;;24.55;42.75293;936.5101;;;;
2023/05/07 08:11:21;;;;;;;0.3;0.3;;;;;;;24.15;42.4209;936.5612;;;;
2023/05/07 08:13:51;;;;;;;1;0.5;;;;;;;24.42;42.16309;936.5739;;;;
2023/05/07 08:16:21;;;;;;;0.6;0.6;;;;;;;24.79;41.71484;936.5992;;;;
2023/05/07 08:18:46;;;;;;;0.8;0.7;;;;;;;26.37;40.65527;936.6805;;;;
2023/05/07 08:21:15;;;;;;;0.7;0.7;;;;;;;25.11;38.71191;936.6259;;;;
2023/05/07 08:23:40;;;;;;;0.6;0.6;;;;;;;24.44;40.32715;936.6067;;;;
2023/05/07 08:26:10;;;;;;;0.6;0.6;;;;;;;24.73;40.61328;936.6531;;;;
2023/05/07 08:28:35;;;;;;;0.5;0.5;;;;;;;24.81;39.72461;936.5865;;;;
2023/05/07 08:31:03;;;;;;;0.6;0.6;;;;;;;24.55;40.23145;936.5765;;;;
2023/05/07 08:33:28;;;;;;;0.5;0.5;;;;;;;24.37;40.37988;936.5737;;;;
2023/05/07 08:35:56;;;;;;;0.7;0.7;;;;;;;25.41;40.42676;936.6428;;;;
2023/05/07 08:38:21;;;;;;;0.7;0.6;;;;;;;25.25;39.29102;936.5669;;;;
2023/05/07 08:40:48;;;;;;;1;0.7;;;;;;;26.61;39.46973;936.5309;;;;
2023/05/07 08:43:13;;;;;;;0.7;0.5;;;;;;;27.49;35.71387;936.4573;;;;
2023/05/07 08:45:38;;;;;;;0.7;0.7;;;;;;;28.12;36.08496;936.4522;;;;
2023/05/07 08:48:03;;;;;;;0.9;0.6;;;;;;;29.29;34.12891;936.4709;;;;
2023/05/07 08:50:28;;;;;;;0.7;0.7;;;;;;;29.96;33.03516;936.496;;;;
2023/05/07 08:52:58;;;;;;;0.8;0.8;;;;;;;29.38;34.21973;936.4662;;;;
2023/05/07 08:55:23;;;;;;;1.4;0.8;;;;;;;27.82;36.55957;936.5037;;;;
2023/05/07 08:57:52;;;;;;;1.2;0.9;;;;;;;28.54;34.2041;936.5464;;;;
2023/05/07 09:00:16;;;;;;;1.6;0.7;;;;;;;28.63;34.61523;936.5104;;;;
2023/05/07 09:02:43;;;;;;;0.7;0.7;;;;;;;28.76;35.39844;936.4967;;;;
2023/05/07 09:05:08;;;;;;;0.6;0.6;;;;;;;28.04;35.21191;936.5372;;;;
2023/05/07 09:07:34;;;;;;;2.3;1.1;;;;;;;28.53;34.00098;936.5486;;;;
2023/05/07 09:09:59;;;;;;;0.8;0.8;;;;;;;29.13;37.09473;936.5178;;;;
2023/05/07 09:12:25;;;;;;;0.8;0.8;;;;;;;29.23;35.29297;936.4908;;;;
2023/05/07 09:14:50;;;;;;;1.2;0.8;;;;;;;28.25;37.85449;936.4824;;;;
2023/05/07 09:17:15;;;;;;;1;0.8;;;;;;;28.26;37.58203;936.4941;;;;
2023/05/07 09:19:41;;;;;;;0.7;0.6;;;;;;;28.1;40.37305;936.4755;;;;
2023/05/07 09:22:06;;;;;;;0.7;0.7;;;;;;;28.55;37.21387;936.4972;;;;
2023/05/07 09:24:34;;;;;;;0.5;0.5;;;;;;;28.68;37.41406;936.4586;;;;
2023/05/07 09:26:57;;;;;;;0.7;0.7;;;;;;;28.6;37.86035;936.4169;;;;
2023/05/07 09:29:22;;;;;;;0.8;0.8;;;;;;;28.81;38.52051;936.4846;;;;
2023/05/07 09:31:49;;;;;;;0.7;0.7;;;;;;;29.05;38.32715;936.4647;;;;
2023/05/07 09:34:14;;;;;;;0.8;0.8;;;;;;;28.81;38.11621;936.435;;;;
2023/05/07 09:36:42;;;;;;;0.8;0.8;;;;;;;28.34;41.07227;936.4324;;;;
2023/05/07 09:39:07;;;;;;;0.9;0.8;;;;;;;27.28;42.5752;936.4437;;;;
2023/05/07 09:41:33;;;;;;;0.9;0.9;;;;;;;27.38;42.63281;936.4127;;;;
2023/05/07 09:43:58;;;;;;;0.9;0.9;;;;;;;27.16;43.30078;936.3989;;;;
2023/05/07 09:46:25;;;;;;;0.9;0.9;;;;;;;27.54;41.62793;936.3706;;;;
2023/05/07 09:48:50;;;;;;;1;1;;;;;;;26.66;44.58984;936.3643;;;;
2023/05/07 09:51:17;;;;;;;0.7;0.7;;;;;;;26.67;43.82129;936.4088;;;;
2023/05/07 09:53:42;;;;;;;0.9;0.9;;;;;;;26.91;41.55664;936.3524;;;;
2023/05/07 09:56:07;;;;;;;1.1;0.9;;;;;;;26.87;44.97754;936.3663;;;;
2023/05/07 09:58:32;;;;;;;1;0.9;;;;;;;26.71;43.25586;936.3144;;;;
2023/05/07 10:01:00;;;;;;;1.2;0.8;;;;;;;26.6;41.26855;936.4083;;;;
2023/05/07 10:03:25;;;;;;;0.8;0.8;;;;;;;25.86;43.26953;936.4414;;;;
2023/05/07 10:05:52;;;;;;;0.9;0.9;;;;;;;25.78;44.33789;936.4256;;;;
2023/05/07 10:08:19;;;;;;;0.8;0.7;;;;;;;26.31;43.32422;936.4334;;;;
2023/05/07 10:10:46;;;;;;;1;0.9;;;;;;;26.67;42.06934;936.4233;;;;
2023/05/07 10:13:11;;;;;;;2.3;0.9;;;;;;;26.99;43.47266;936.4236;;;;
2023/05/07 10:15:44;;;;;;;1.4;1;;;;;;;26.89;43.19043;936.3304;;;;
2023/05/07 10:18:09;;;;;;;0.9;0.9;;;;;;;26.94;43.38574;936.3458;;;;
2023/05/07 10:20:35;;;;;;;1;1;;;;;;;27.25;42.14648;936.3599;;;;
2023/05/07 10:23:00;;;;;;;1.2;1.1;;;;;;;26.72;43.41113;936.2739;;;;
2023/05/07 10:25:27;;;;;;;1.3;1.2;;;;;;;26.01;46.5;936.3798;;;;
2023/05/07 10:27:52;;;;;;;0.9;0.9;;;;;;;26.28;43.60449;936.3505;;;;
2023/05/07 10:30:17;;;;;;;1.4;1;;;;;;;25.98;43.52832;936.3553;;;;
2023/05/07 10:32:44;;;;;;;0.9;0.8;;;;;;;25.52;45.7998;936.3546;;;;
2023/05/07 10:35:09;;;;;;;1.2;1.1;;;;;;;25.01;47.38867;936.337;;;;
2023/05/07 10:37:36;;;;;;;1;0.9;;;;;;;25;46.30078;936.3133;;;;
2023/05/07 10:40:01;;;;;;;0.9;0.9;;;;;;;24.94;46.49609;936.2783;;;;
2023/05/07 10:42:29;;;;;;;1.1;1;;;;;;;24.99;46.1582;936.2728;;;;
2023/05/07 10:44:54;;;;;;;46;12.7;;;;;;;25.01;48.60254;936.3624;;;;
2023/05/07 10:47:23;;;;;;;9;3.5;;;;;;;24.78;50.9375;936.3583;;;;
2023/05/07 10:49:48;;;;;;;10;3.8;;;;;;;24.63;53.76074;936.334;;;;
2023/05/07 10:52:13;;;;;;;0.9;0.9;;;;;;;24.89;53.5332;936.3762;;;;
2023/05/07 10:54:38;;;;;;;1;1;;;;;;;25.23;53.96387;936.415;;;;
2023/05/07 10:57:03;;;;;;;1.1;1;;;;;;;25.13;53.03027;936.4172;;;;
2023/05/07 10:59:31;;;;;;;1;1;;;;;;;25.06;50.27148;936.3809;;;;
2023/05/07 11:01:57;;;;;;;2.5;1.3;;;;;;;24.73;50.88477;936.399;;;;
2023/05/07 11:04:27;;;;;;;1.3;1.2;;;;;;;24.02;53.04102;936.37;;;;
2023/05/07 11:06:47;;;;;;;0.8;0.8;;;;;;;23.87;53.0459;936.4426;;;;
2023/05/07 11:09:14;;;;;;;1.2;1.1;;;;;;;23.81;53.78125;936.5555;;;;
2023/05/07 11:11:39;;;;;;;2;1.2;;;;;;;23.15;58.19922;936.558;;;;
2023/05/07 11:14:04;;;;;;;1.2;1.1;;;;;;;23.36;56.67578;936.5956;;;;
2023/05/07 11:16:33;;;;;;;1.2;1.1;;;;;;;22.72;60.08105;936.6135;;;;
2023/05/07 11:18:57;;;;;;;2;1.3;;;;;;;22.25;65.53027;936.6922;;;;
2023/05/07 11:21:46;;;;;;;1.5;1.4;;;;;;;22;67.55469;936.6925;;;;
2023/05/07 11:24:11;;;;;;;2.1;1.4;;;;;;;21.2;73.11914;936.718;;;;
2023/05/07 11:26:36;;;;;;;1.9;1.4;;;;;;;20.69;72.42871;936.6671;;;;
2023/05/07 11:29:02;;;;;;;1.4;1.3;;;;;;;20.43;74.06543;936.5876;;;;
2023/05/07 11:31:28;;;;;;;1.3;1.2;;;;;;;20.08;72.25781;936.6451;;;;
2023/05/07 11:33:52;;;;;;;1.4;1.3;;;;;;;19.81;72.66797;936.5207;;;;
2023/05/07 11:36:42;;;;;;;1.1;0.9;;;;;;;19.9;72.77637;936.5927;;;;
2023/05/07 11:39:07;;;;;;;1.1;0.9;;;;;;;19.68;72.00684;936.593;;;;
2023/05/07 11:41:32;;;;;;;0.9;0.9;;;;;;;19.84;73.82715;936.5719;;;;
2023/05/07 11:43:58;;;;;;;1.6;1;;;;;;;19.71;72.32422;936.5195;;;;
2023/05/07 11:46:23;;;;;;;0.8;0.8;;;;;;;20.08;69.25879;936.5636;;;;
2023/05/07 11:48:49;;;;;;;0.7;0.6;;;;;;;20.13;68.18164;936.6223;;;;
2023/05/07 11:51:15;;;;;;;0.7;0.6;;;;;;;20.41;68.20215;936.6024;;;;
2023/05/07 11:53:40;;;;;;;0.8;0.8;;;;;;;20.54;68.68848;936.568;;;;
2023/05/07 11:56:05;;;;;;;1.1;0.8;;;;;;;20.71;70.05762;936.6487;;;;
2023/05/07 11:58:32;;;;;;;0.9;0.9;;;;;;;21.22;66.94531;936.5366;;;;
2023/05/07 12:00:57;;;;;;;2.2;1;;;;;;;21.5;69.10645;936.5909;;;;
2023/05/07 12:03:23;;;;;;;0.8;0.8;;;;;;;21.44;64.70703;936.5859;;;;
2023/05/07 12:05:48;;;;;;;0.7;0.7;;;;;;;21.73;66.02539;936.5775;;;;
2023/05/07 12:08:13;;;;;;;0.6;0.6;;;;;;;22.15;66.69824;936.5197;;;;
2023/05/07 12:10:38;;;;;;;0.7;0.7;;;;;;;22.29;59.97656;936.4431;;;;
2023/05/07 12:13:04;;;;;;;0.8;0.7;;;;;;;22.17;60.41797;936.4841;;;;
2023/05/07 12:15:29;;;;;;;0.5;0.5;;;;;;;22.73;59.47266;936.3709;;;;
2023/05/07 12:17:55;;;;;;;1.9;0.7;;;;;;;22.78;56.12207;936.3494;;;;
2023/05/07 12:20:20;;;;;;;0.5;0.5;;;;;;;22.63;55.14063;936.3531;;;;
2023/05/07 12:22:47;;;;;;;0.8;0.7;;;;;;;22.48;56.87012;936.3484;;;;
2023/05/07 12:25:14;;;;;;;0.9;0.8;;;;;;;22.72;56.06738;936.3301;;;;
2023/05/07 12:27:37;;;;;;;0.8;0.7;;;;;;;22.77;53.77148;936.2712;;;;
2023/05/07 12:30:02;;;;;;;1.4;1;;;;;;;23.67;55.19824;936.2626;;;;
2023/05/07 12:32:28;;;;;;;1.9;0.7;;;;;;;24.24;52.60742;936.2134;;;;
2023/05/07 12:34:52;;;;;;;0.6;0.6;;;;;;;24.58;47.73047;936.249;;;;
2023/05/07 12:37:21;;;;;;;0.9;0.8;;;;;;;24.74;45.89648;936.2547;;;;
2023/05/07 12:39:46;;;;;;;0.8;0.8;;;;;;;24.61;46.34375;936.2775;;;;
2023/05/07 12:42:11;;;;;;;1.4;0.5;;;;;;;24.63;49.10449;936.2256;;;;
2023/05/07 12:44:37;;;;;;;1;0.6;;;;;;;24.56;49.875;936.2139;;;;
2023/05/07 12:47:07;;;;;;;0.7;0.7;;;;;;;24.93;50.50488;936.2325;;;;
2023/05/07 12:49:32;;;;;;;2.3;0.9;;;;;;;24.66;50.08594;936.116;;;;
2023/05/07 12:51:57;;;;;;;1;0.8;;;;;;;23.9;52.07324;936.1736;;;;
2023/05/07 12:54:22;;;;;;;0.8;0.7;;;;;;;23.67;52.18652;936.178;;;;
2023/05/07 12:56:47;;;;;;;0.7;0.7;;;;;;;23.33;55.97754;936.1987;;;;
2023/05/07 12:59:12;;;;;;;1;0.7;;;;;;;23.61;56.4834;936.1578;;;;
2023/05/07 13:01:38;;;;;;;0.7;0.7;;;;;;;24.08;53.40039;936.1358;;;;
2023/05/07 13:04:04;;;;;;;0.8;0.8;;;;;;;24.38;53.6123;936.0995;;;;
2023/05/07 13:06:29;;;;;;;1.6;0.8;;;;;;;24.45;53.80957;936.1167;;;;
2023/05/07 13:08:56;;;;;;;0.7;0.6;;;;;;;24.56;50.66406;936.1523;;;;
2023/05/07 13:11:21;;;;;;;0.7;0.7;;;;;;;25;48.49609;936.2087;;;;
2023/05/07 13:13:47;;;;;;;0.8;0.8;;;;;;;25.14;47.84961;936.1813;;;;
2023/05/07 13:16:12;;;;;;;1.3;1;;;;;;;24.91;48.81641;936.1464;;;;
2023/05/07 13:18:40;;;;;;;1;0.7;;;;;;;23.95;54.33887;936.1544;;;;
2023/05/07 13:21:06;;;;;;;1.4;1.1;;;;;;;23.86;55.16309;936.1731;;;;
2023/05/07 13:23:31;;;;;;;1.3;1.2;;;;;;;24.04;56.42188;936.2083;;;;
2023/05/07 13:25:56;;;;;;;1.3;0.8;;;;;;;24.3;51.37695;936.1545;;;;
2023/05/07 13:28:22;;;;;;;0.9;0.8;;;;;;;24.34;50.95703;936.1389;;;;
2023/05/07 13:30:47;;;;;;;0.8;0.8;;;;;;;24.39;49.31348;936.1274;;;;
2023/05/07 13:33:14;;;;;;;1;0.8;;;;;;;24.57;50.75879;936.1649;;;;
2023/05/07 13:35:39;;;;;;;2.3;0.9;;;;;;;24.06;49.70117;936.1934;;;;
2023/05/07 13:38:07;;;;;;;0.9;0.9;;;;;;;24.24;51.11133;936.1815;;;;
2023/05/07 13:40:32;;;;;;;0.7;0.7;;;;;;;24.12;51.89746;936.2422;;;;
2023/05/07 13:43:01;;;;;;;0.8;0.8;;;;;;;23.57;50.68164;936.3416;;;;
2023/05/07 13:45:25;;;;;;;0.7;0.7;;;;;;;23.11;52.02734;936.3603;;;;
2023/05/07 13:47:50;;;;;;;0.7;0.7;;;;;;;22.81;51.74609;936.3997;;;;
2023/05/07 13:50:15;;;;;;;0.9;0.7;;;;;;;22.07;51.55469;936.32;;;;
2023/05/07 13:52:47;;;;;;;0.7;0.7;;;;;;;21.98;52.16504;936.3315;;;;
2023/05/07 13:55:08;;;;;;;0.8;0.8;;;;;;;21.98;52.04785;936.3153;;;;
2023/05/07 13:57:33;;;;;;;1.1;0.8;;;;;;;21.97;51.30859;936.2688;;;;
2023/05/07 13:59:58;;;;;;;2;1.1;;;;;;;22.08;51.62598;936.3454;;;;
2023/05/07 14:02:23;;;;;;;0.9;0.9;;;;;;;22.03;51.57227;936.4233;;;;
2023/05/07 14:04:50;;;;;;;1.4;1.1;;;;;;;21.96;50.65137;936.4572;;;;
2023/05/07 14:07:15;;;;;;;0.8;0.8;;;;;;;21.68;51.31055;936.4924;;;;
2023/05/07 14:09:45;;;;;;;0.9;0.8;;;;;;;21.64;51.94922;936.4987;;;;
2023/05/07 14:12:09;;;;;;;0.9;0.9;;;;;;;21.55;51.96191;936.5648;;;;
2023/05/07 14:14:34;;;;;;;0.8;0.8;;;;;;;21.5;53.0918;936.5745;;;;
2023/05/07 14:16:59;;;;;;;1;0.8;;;;;;;21.25;52.61816;936.5474;;;;
2023/05/07 14:19:25;;;;;;;0.8;0.7;;;;;;;21.21;52.19043;936.5101;;;;
2023/05/07 14:21:50;;;;;;;0.9;0.6;;;;;;;21.06;52.48926;936.5751;;;;
2023/05/07 14:24:18;;;;;;;1.4;0.7;;;;;;;21.03;52.05371;936.5745;;;;
2023/05/07 14:26:43;;;;;;;1;0.8;;;;;;;20.98;52.11719;936.4604;;;;
2023/05/07 14:29:10;;;;;;;0.9;0.8;;;;;;;21.05;51.97266;936.4891;;;;
2023/05/07 14:31:35;;;;;;;1;0.9;;;;;;;21.03;51.74805;936.3992;;;;
2023/05/07 14:34:01;;;;;;;0.8;0.8;;;;;;;21.1;52.5293;936.3116;;;;
2023/05/07 14:36:26;;;;;;;1;0.8;;;;;;;20.96;53.31836;936.3201;;;;
2023/05/07 14:38:52;;;;;;;0.9;0.8;;;;;;;21.07;52.60742;936.3166;;;;
2023/05/07 14:41:16;;;;;;;0.6;0.6;;;;;;;21.08;55.07617;936.3923;;;;
2023/05/07 14:43:49;;;;;;;0.7;0.7;;;;;;;21.2;53.53516;936.4045;;;;
2023/05/07 14:46:08;;;;;;;1;0.8;;;;;;;21.18;53.58008;936.5341;;;;
2023/05/07 14:48:35;;;;;;;0.9;0.9;;;;;;;21.17;52.75977;936.4523;;;;
2023/05/07 14:51:00;;;;;;;1;0.7;;;;;;;21.15;52.89746;936.6241;;;;
2023/05/07 14:53:27;;;;;;;0.6;0.6;;;;;;;21.27;52.33887;936.5527;;;;
2023/05/07 14:55:52;;;;;;;1.1;0.7;;;;;;;21.42;53.57324;936.6163;;;;
2023/05/07 14:58:17;;;;;;;1;0.5;;;;;;;21.39;54.49512;936.553;;;;
2023/05/07 15:00:42;;;;;;;0.9;0.7;;;;;;;21.42;52.85938;936.6097;;;;
2023/05/07 15:03:07;;;;;;;0.6;0.6;;;;;;;21.65;53.48438;936.6021;;;;
2023/05/07 15:05:34;;;;;;;1.4;0.9;;;;;;;21.7;49.20313;936.6166;;;;
2023/05/07 15:07:59;;;;;;;1;0.8;;;;;;;21.62;49.91992;936.6111;;;;
2023/05/07 15:10:24;;;;;;;0.8;0.7;;;;;;;21.62;53.67871;936.5973;;;;
2023/05/07 15:12:51;;;;;;;0.5;0.5;;;;;;;21.47;50.4668;936.6275;;;;
2023/05/07 15:15:16;;;;;;;0.7;0.6;;;;;;;21.29;49.6377;936.598;;;;
2023/05/07 15:17:43;;;;;;;1.3;0.5;;;;;;;21.3;49.5918;936.5726;;;;
2023/05/07 15:20:08;;;;;;;1;0.6;;;;;;;21.35;48.65039;936.5659;;;;
2023/05/07 15:22:35;;;;;;;0.8;0.5;;;;;;;21.4;48.33887;936.5376;;;;
2023/05/07 15:24:59;;;;;;;0.7;0.4;;;;;;;21.53;47.78125;936.6108;;;;
2023/05/07 15:27:25;;;;;;;0.4;0.4;;;;;;;21.56;47.57227;936.5352;;;;
2023/05/07 15:29:50;;;;;;;0.5;0.5;;;;;;;21.53;47.65234;936.4779;;;;
2023/05/07 15:32:17;;;;;;;0.4;0.4;;;;;;;21.61;48.2207;936.3959;;;;
2023/05/07 15:34:42;;;;;;;0.7;0.4;;;;;;;21.54;47.35938;936.4282;;;;
2023/05/07 15:37:08;;;;;;;1.2;0.6;;;;;;;21.47;47.67871;936.4779;;;;
2023/05/07 15:39:33;;;;;;;0.7;0.7;;;;;;;21.47;48.6748;936.4964;;;;
2023/05/07 15:42:00;;;;;;;1.4;0.8;;;;;;;21.53;48.6582;936.4716;;;;
2023/05/07 15:44:27;;;;;;;0.6;0.6;;;;;;;21.55;48.4502;936.4302;;;;
2023/05/07 15:46:52;;;;;;;0.4;0.4;;;;;;;21.5;47.61328;936.3883;;;;
2023/05/07 15:49:17;;;;;;;0.5;0.5;;;;;;;21.57;48.12305;936.3649;;;;
2023/05/07 15:51:44;;;;;;;0.5;0.5;;;;;;;21.59;46.8252;936.4144;;;;
2023/05/07 15:54:09;;;;;;;0.5;0.5;;;;;;;21.54;47.14844;936.403;;;;
2023/05/07 15:56:34;;;;;;;0.6;0.6;;;;;;;21.6;46.58105;936.3824;;;;
2023/05/07 15:58:59;;;;;;;0.6;0.6;;;;;;;21.68;46.13379;936.4599;;;;
2023/05/07 16:01:25;;;;;;;0.9;0.6;;;;;;;21.62;46.8291;936.4302;;;;
2023/05/07 16:03:50;;;;;;;1.1;0.5;;;;;;;21.62;46.52441;936.3639;;;;
2023/05/07 16:06:17;;;;;;;1.1;0.6;;;;;;;21.58;47.73828;936.3605;;;;
2023/05/07 16:08:43;;;;;;;1.3;0.6;;;;;;;21.54;47.48828;936.3722;;;;
2023/05/07 16:11:08;;;;;;;0.5;0.5;;;;;;;21.52;48.72656;936.3148;;;;